Time;durP1;ratioP1;P1;durP2;ratioP2;P2;SDS_P1;SDS_P2;PMS_P1;PMS_P2;Temp;Humidity;BMP_temperature;BMP_pressure;BME280_temperature;BME280_humidity;BME280_pressure;Samples;Min_cycle;Max_cycle;Signal;HPM_P1;HPM_P2
2022/12/28 00:00:48;;;;;;;0.90;0.90;;;;;;;;;;5074625;28;20178;-78
2022/12/28 00:03:14;;;;;;;0.80;0.80;;;;;;;;;;5073824;28;20209;-79
2022/12/28 00:05:40;;;;;;;0.90;0.90;;;;;;;;;;5074426;28;20182;-78
2022/12/28 00:08:06;;;;;;;0.90;0.90;;;;;;;;;;5074384;28;20194;-78
2022/12/28 00:10:32;;;;;;;0.80;0.80;;;;;;;;;;5074563;28;20232;-79
2022/12/28 00:12:58;;;;;;;1.00;1.00;;;;;;;;;;5075222;28;20175;-76
2022/12/28 00:15:23;;;;;;;0.90;0.90;;;;;;;;;;5082896;28;20183;-76
2022/12/28 00:17:49;;;;;;;0.90;0.90;;;;;;;;;;5083570;28;20277;-76
2022/12/28 00:20:15;;;;;;;0.80;0.80;;;;;;;;;;5076456;28;20171;-76
2022/12/28 00:22:41;;;;;;;0.90;0.90;;;;;;;;;;5074921;28;20190;-77
2022/12/28 00:25:07;;;;;;;0.90;0.90;;;;;;;;;;5074905;28;20200;-77
2022/12/28 00:27:33;;;;;;;1.00;1.00;;;;;;;;;;5074047;28;20171;-75
2022/12/28 00:29:59;;;;;;;0.90;0.90;;;;;;;;;;5074064;28;20527;-77
2022/12/28 00:32:25;;;;;;;0.90;0.90;;;;;;;;;;5073098;28;20182;-75
2022/12/28 00:34:51;;;;;;;1.00;1.00;;;;;;;;;;5073698;28;20203;-76
2022/12/28 00:37:17;;;;;;;0.90;0.90;;;;;;;;;;5073572;28;20216;-76
2022/12/28 00:39:43;;;;;;;0.90;0.90;;;;;;;;;;5073617;28;20166;-76
2022/12/28 00:42:10;;;;;;;0.90;0.90;;;;;;;;;;5073480;28;20186;-76
2022/12/28 00:44:36;;;;;;;0.90;0.90;;;;;;;;;;5073572;28;20618;-74
2022/12/28 00:47:02;;;;;;;0.90;0.90;;;;;;;;;;5073408;28;20186;-75
2022/12/28 00:49:28;;;;;;;1.00;1.00;;;;;;;;;;5073310;28;20182;-75
2022/12/28 00:51:53;;;;;;;0.90;0.90;;;;;;;;;;5073354;28;20194;-76
2022/12/28 00:54:19;;;;;;;0.97;0.97;;;;;;;;;;5072757;28;20252;-76
2022/12/28 00:56:45;;;;;;;0.90;0.90;;;;;;;;;;5073398;28;20259;-77
2022/12/28 00:59:11;;;;;;;0.87;0.87;;;;;;;;;;5073421;28;20178;-77
2022/12/28 01:01:38;;;;;;;0.90;0.90;;;;;;;;;;5073242;28;20175;-76
2022/12/28 01:04:04;;;;;;;0.80;0.80;;;;;;;;;;5072722;28;20194;-76
2022/12/28 01:06:30;;;;;;;0.90;0.90;;;;;;;;;;5073152;28;20276;-75
2022/12/28 01:08:56;;;;;;;0.90;0.90;;;;;;;;;;5072895;28;20213;-74
2022/12/28 01:11:25;;;;;;;0.80;0.80;;;;;;;;;;5073111;28;20189;-75
2022/12/28 01:13:52;;;;;;;0.90;0.90;;;;;;;;;;5072506;28;20560;-77
2022/12/28 01:16:20;;;;;;;0.90;0.90;;;;;;;;;;5072906;28;20293;-76
2022/12/28 01:18:46;;;;;;;0.90;0.90;;;;;;;;;;5072707;28;20619;-76
2022/12/28 01:21:17;;;;;;;0.90;0.90;;;;;;;;;;5072689;28;20183;-75
2022/12/28 01:23:43;;;;;;;0.90;0.90;;;;;;;;;;5072018;28;20198;-74
2022/12/28 01:26:09;;;;;;;0.90;0.90;;;;;;;;;;5072073;28;20178;-75
2022/12/28 01:28:35;;;;;;;0.90;0.90;;;;;;;;;;5072664;28;20576;-73
2022/12/28 01:31:20;;;;;;;0.80;0.80;;;;;;;;;;5072480;28;20239;-78
2022/12/28 01:33:46;;;;;;;0.90;0.90;;;;;;;;;;5071953;28;20281;-73
2022/12/28 01:36:16;;;;;;;0.80;0.80;;;;;;;;;;5072293;28;20234;-74
2022/12/28 01:41:11;;;;;;;0.90;0.90;;;;;;;;;;5069032;28;20670;-76
2022/12/28 01:43:41;;;;;;;1.00;1.00;;;;;;;;;;5062664;28;20222;-76
2022/12/28 01:46:09;;;;;;;0.90;0.90;;;;;;;;;;5051468;28;20174;-76
2022/12/28 01:48:36;;;;;;;0.90;0.90;;;;;;;;;;5051359;28;20217;-76
2022/12/28 01:51:02;;;;;;;0.80;0.80;;;;;;;;;;5051616;28;20181;-77
2022/12/28 01:53:28;;;;;;;0.90;0.90;;;;;;;;;;5050814;28;20687;-77
2022/12/28 01:55:54;;;;;;;0.90;0.90;;;;;;;;;;5051321;28;20201;-74
2022/12/28 01:58:23;;;;;;;0.80;0.80;;;;;;;;;;5051409;28;20171;-74
2022/12/28 02:00:49;;;;;;;0.90;0.90;;;;;;;;;;5051287;28;20171;-74
2022/12/28 02:03:22;;;;;;;0.90;0.90;;;;;;;;;;5050446;28;20296;-73
2022/12/28 02:05:50;;;;;;;0.90;0.90;;;;;;;;;;5051077;28;20175;-74
2022/12/28 02:08:16;;;;;;;0.90;0.90;;;;;;;;;;5051232;28;20183;-74
2022/12/28 02:10:42;;;;;;;0.90;0.90;;;;;;;;;;5051033;28;20263;-74
2022/12/28 02:13:08;;;;;;;0.80;0.80;;;;;;;;;;5050389;28;20652;-73
2022/12/28 02:15:35;;;;;;;0.80;0.80;;;;;;;;;;5050878;28;20605;-73
2022/12/28 02:18:01;;;;;;;0.90;0.90;;;;;;;;;;5050726;28;20226;-73
2022/12/28 02:20:32;;;;;;;0.90;0.90;;;;;;;;;;5051014;28;20209;-72
2022/12/28 02:23:12;;;;;;;0.83;0.83;;;;;;;;;;5050362;28;20349;-73
2022/12/28 02:25:46;;;;;;;0.90;0.90;;;;;;;;;;5050896;28;20640;-73
2022/12/28 02:28:31;;;;;;;0.80;0.80;;;;;;;;;;5050777;28;20177;-74
2022/12/28 02:31:02;;;;;;;1.00;1.00;;;;;;;;;;5050768;28;20673;-74
2022/12/28 02:33:35;;;;;;;0.90;0.90;;;;;;;;;;5050232;28;20757;-74
2022/12/28 02:36:05;;;;;;;0.80;0.80;;;;;;;;;;5050662;28;20258;-74
2022/12/28 02:38:36;;;;;;;0.90;0.90;;;;;;;;;;5050610;28;20293;-73
2022/12/28 02:41:10;;;;;;;0.80;0.80;;;;;;;;;;5050627;28;20282;-73
2022/12/28 02:43:36;;;;;;;0.90;0.90;;;;;;;;;;5049908;28;20695;-74
2022/12/28 02:52:26;;;;;;;0.83;0.83;;;;;;;;;;5050132;28;20205;-74
2022/12/28 02:58:00;;;;;;;0.90;0.90;;;;;;;;;;5050510;28;20618;-74
2022/12/28 03:00:29;;;;;;;0.80;0.80;;;;;;;;;;5051025;28;20174;-74
2022/12/28 03:03:13;;;;;;;0.90;0.90;;;;;;;;;;5050212;28;20241;-73
2022/12/28 03:08:44;;;;;;;0.80;0.80;;;;;;;;;;5053744;28;20264;-74
2022/12/28 03:11:11;;;;;;;0.80;0.80;;;;;;;;;;5056066;28;20190;-74
2022/12/28 03:13:43;;;;;;;1.00;1.00;;;;;;;;;;5055767;28;20591;-73
2022/12/28 03:16:15;;;;;;;0.90;0.90;;;;;;;;;;5051995;28;20225;-74
2022/12/28 03:32:34;;;;;;;0.90;0.90;;;;;;;;;;5050421;28;20305;-74
2022/12/28 03:35:00;;;;;;;0.90;0.90;;;;;;;;;;5050353;28;20759;-75
2022/12/28 03:37:43;;;;;;;0.80;0.80;;;;;;;;;;5050694;28;20362;-74
2022/12/28 03:40:12;;;;;;;0.90;0.90;;;;;;;;;;5050444;28;20195;-74
2022/12/28 03:45:48;;;;;;;0.90;0.90;;;;;;;;;;5050506;28;20191;-73
2022/12/28 03:48:15;;;;;;;0.90;0.90;;;;;;;;;;5050419;28;20214;-74
2022/12/28 03:50:43;;;;;;;0.87;0.87;;;;;;;;;;5052566;28;20175;-74
2022/12/28 03:53:09;;;;;;;0.90;0.90;;;;;;;;;;5053420;28;20203;-74
2022/12/28 03:55:39;;;;;;;1.00;1.00;;;;;;;;;;5053717;28;20674;-74
2022/12/28 03:58:05;;;;;;;0.90;0.90;;;;;;;;;;5054012;28;20219;-75
2022/12/28 04:00:32;;;;;;;0.90;0.90;;;;;;;;;;5054012;28;20576;-75
2022/12/28 04:02:58;;;;;;;0.90;0.90;;;;;;;;;;5053165;28;20237;-75
2022/12/28 04:05:24;;;;;;;0.80;0.80;;;;;;;;;;5053756;28;20205;-74
2022/12/28 04:07:49;;;;;;;1.00;1.00;;;;;;;;;;5053534;28;20258;-74
2022/12/28 04:10:15;;;;;;;0.80;0.80;;;;;;;;;;5053417;28;20186;-73
2022/12/28 04:12:41;;;;;;;0.90;0.90;;;;;;;;;;5052894;28;20258;-74
2022/12/28 04:15:07;;;;;;;0.80;0.80;;;;;;;;;;5053613;28;20190;-74
2022/12/28 04:17:33;;;;;;;0.90;0.90;;;;;;;;;;5053423;28;20580;-73
2022/12/28 04:19:59;;;;;;;0.90;0.90;;;;;;;;;;5053356;28;20671;-73
2022/12/28 04:22:25;;;;;;;0.90;0.90;;;;;;;;;;5052811;28;20195;-74
2022/12/28 04:24:51;;;;;;;0.90;0.90;;;;;;;;;;5053165;28;20198;-74
2022/12/28 04:27:17;;;;;;;0.90;0.90;;;;;;;;;;5053408;28;20206;-74
2022/12/28 04:29:43;;;;;;;0.80;0.80;;;;;;;;;;5053284;28;20174;-74
2022/12/28 04:32:09;;;;;;;0.90;0.90;;;;;;;;;;5052906;28;20206;-73
2022/12/28 04:34:35;;;;;;;0.90;0.90;;;;;;;;;;5053264;28;20282;-74
2022/12/28 04:37:01;;;;;;;0.90;0.90;;;;;;;;;;5053038;28;20234;-73
2022/12/28 04:39:27;;;;;;;1.00;1.00;;;;;;;;;;5052980;28;20191;-75
2022/12/28 04:41:53;;;;;;;1.00;1.00;;;;;;;;;;5053225;28;20251;-74
2022/12/28 04:44:19;;;;;;;0.90;0.90;;;;;;;;;;5052686;28;20191;-74
2022/12/28 04:46:45;;;;;;;0.90;0.90;;;;;;;;;;5052990;28;20221;-74
2022/12/28 04:49:11;;;;;;;0.80;0.80;;;;;;;;;;5052907;28;20175;-75
2022/12/28 04:51:37;;;;;;;0.90;0.90;;;;;;;;;;5052806;28;20171;-74
2022/12/28 04:54:03;;;;;;;0.90;0.90;;;;;;;;;;5052043;28;20298;-75
2022/12/28 04:56:29;;;;;;;0.90;0.90;;;;;;;;;;5052969;28;20253;-74
2022/12/28 04:58:55;;;;;;;0.90;0.90;;;;;;;;;;5052806;28;20256;-74
2022/12/28 05:01:22;;;;;;;1.00;1.00;;;;;;;;;;5052625;28;20179;-75
2022/12/28 05:03:48;;;;;;;0.93;0.93;;;;;;;;;;5051938;28;20671;-73
2022/12/28 05:06:18;;;;;;;1.00;1.00;;;;;;;;;;5052583;28;20182;-75
2022/12/28 05:08:44;;;;;;;0.90;0.90;;;;;;;;;;5052505;28;20190;-74
2022/12/28 05:11:12;;;;;;;0.90;0.90;;;;;;;;;;5052658;28;20542;-74
2022/12/28 05:13:38;;;;;;;0.70;0.70;;;;;;;;;;5052151;28;20281;-74
2022/12/28 05:16:05;;;;;;;0.87;0.87;;;;;;;;;;5052442;28;20709;-75
2022/12/28 05:18:31;;;;;;;0.80;0.80;;;;;;;;;;5052339;28;20200;-75
2022/12/28 05:21:07;;;;;;;0.90;0.90;;;;;;;;;;5052249;28;20175;-75
2022/12/28 05:23:35;;;;;;;0.80;0.80;;;;;;;;;;5051770;28;20277;-75
2022/12/28 05:26:01;;;;;;;0.90;0.90;;;;;;;;;;5052091;28;20179;-74
2022/12/28 05:28:27;;;;;;;0.87;0.87;;;;;;;;;;5052159;28;20532;-74
2022/12/28 05:30:57;;;;;;;0.90;0.90;;;;;;;;;;5052095;28;20522;-74
2022/12/28 05:33:23;;;;;;;0.90;0.90;;;;;;;;;;5051575;28;20205;-75
2022/12/28 05:35:49;;;;;;;0.90;0.90;;;;;;;;;;5051984;28;20171;-75
2022/12/28 05:38:15;;;;;;;0.90;0.90;;;;;;;;;;5052000;28;20194;-75
2022/12/28 05:40:41;;;;;;;0.90;0.90;;;;;;;;;;5052117;28;20221;-75
2022/12/28 05:43:07;;;;;;;0.90;0.90;;;;;;;;;;5051587;28;20563;-75
2022/12/28 05:45:33;;;;;;;0.90;0.90;;;;;;;;;;5051837;28;20680;-75
2022/12/28 05:47:59;;;;;;;1.00;1.00;;;;;;;;;;5051736;28;20675;-75
2022/12/28 05:50:25;;;;;;;0.90;0.90;;;;;;;;;;5051726;28;20628;-75
2022/12/28 05:52:51;;;;;;;0.90;0.90;;;;;;;;;;5051148;28;20171;-74
2022/12/28 05:55:17;;;;;;;1.00;1.00;;;;;;;;;;5051656;28;20170;-75
2022/12/28 05:57:42;;;;;;;0.90;0.90;;;;;;;;;;5051735;28;20302;-75
2022/12/28 06:00:10;;;;;;;0.90;0.90;;;;;;;;;;5051715;28;20289;-75
2022/12/28 06:02:36;;;;;;;0.80;0.80;;;;;;;;;;5051485;28;20256;-75
2022/12/28 06:05:02;;;;;;;0.90;0.90;;;;;;;;;;5051770;28;20677;-75
2022/12/28 06:07:28;;;;;;;0.90;0.90;;;;;;;;;;5051793;28;20186;-75
2022/12/28 06:09:53;;;;;;;0.93;0.93;;;;;;;;;;5052114;28;20198;-75
2022/12/28 06:12:19;;;;;;;0.90;0.90;;;;;;;;;;5050671;28;20183;-75
2022/12/28 06:14:45;;;;;;;0.90;0.90;;;;;;;;;;5051481;28;20203;-74
2022/12/28 06:17:11;;;;;;;0.90;0.90;;;;;;;;;;5051303;28;20288;-75
2022/12/28 06:19:37;;;;;;;1.00;1.00;;;;;;;;;;5051352;28;20229;-74
2022/12/28 06:22:03;;;;;;;0.90;0.90;;;;;;;;;;5050922;28;20178;-75
2022/12/28 06:24:29;;;;;;;0.97;0.97;;;;;;;;;;5051433;28;20198;-75
2022/12/28 06:26:55;;;;;;;0.80;0.80;;;;;;;;;;5051556;28;20175;-76
2022/12/28 06:29:21;;;;;;;0.90;0.90;;;;;;;;;;5051304;28;20544;-75
2022/12/28 06:31:49;;;;;;;0.90;0.90;;;;;;;;;;5051128;28;20349;-75
2022/12/28 06:34:15;;;;;;;1.00;1.00;;;;;;;;;;5050870;28;20273;-75
2022/12/28 06:36:42;;;;;;;0.83;0.83;;;;;;;;;;5051276;28;20361;-75
2022/12/28 06:39:09;;;;;;;0.83;0.83;;;;;;;;;;5050703;28;20186;-76
2022/12/28 06:41:35;;;;;;;0.87;0.87;;;;;;;;;;5051120;28;20535;-76
2022/12/28 06:44:04;;;;;;;0.90;0.90;;;;;;;;;;5050480;28;20257;-75
2022/12/28 06:46:30;;;;;;;0.90;0.90;;;;;;;;;;5050767;28;20648;-76
2022/12/28 06:48:57;;;;;;;0.87;0.87;;;;;;;;;;5050896;28;20167;-75
2022/12/28 06:51:24;;;;;;;0.90;0.90;;;;;;;;;;5051009;28;20186;-76
2022/12/28 06:53:50;;;;;;;0.90;0.90;;;;;;;;;;5051296;28;20194;-75
2022/12/28 06:56:18;;;;;;;0.90;0.90;;;;;;;;;;5050336;28;20214;-73
2022/12/28 06:58:44;;;;;;;0.90;0.90;;;;;;;;;;5050694;28;20171;-73
2022/12/28 07:01:10;;;;;;;0.90;0.90;;;;;;;;;;5050825;28;20240;-74
2022/12/28 07:03:36;;;;;;;0.80;0.80;;;;;;;;;;5050570;28;20198;-74
2022/12/28 07:06:03;;;;;;;0.90;0.90;;;;;;;;;;5050624;28;20186;-74
2022/12/28 07:08:28;;;;;;;0.90;0.90;;;;;;;;;;5050112;28;20232;-73
2022/12/28 07:10:54;;;;;;;1.00;1.00;;;;;;;;;;5050468;28;20270;-76
2022/12/28 07:13:20;;;;;;;0.90;0.90;;;;;;;;;;5051887;28;20199;-75
2022/12/28 07:15:46;;;;;;;0.90;0.90;;;;;;;;;;5065227;28;20186;-75
2022/12/28 07:18:12;;;;;;;1.00;1.00;;;;;;;;;;5066199;28;20207;-75
2022/12/28 07:20:38;;;;;;;0.90;0.90;;;;;;;;;;5058078;28;20182;-76
2022/12/28 07:23:04;;;;;;;0.90;0.90;;;;;;;;;;5050143;28;20202;-75
2022/12/28 07:25:30;;;;;;;0.90;0.90;;;;;;;;;;5051953;28;20171;-76
2022/12/28 07:27:56;;;;;;;0.80;0.80;;;;;;;;;;5053860;28;20271;-76
2022/12/28 07:30:22;;;;;;;0.90;0.90;;;;;;;;;;5045207;28;20219;-75
2022/12/28 07:32:48;;;;;;;0.90;0.90;;;;;;;;;;5040043;28;20176;-75
2022/12/28 07:35:14;;;;;;;0.90;0.90;;;;;;;;;;5044135;28;20168;-75
2022/12/28 07:37:40;;;;;;;0.90;0.90;;;;;;;;;;5045474;28;20202;-75
2022/12/28 07:40:06;;;;;;;1.00;1.00;;;;;;;;;;5045849;28;20277;-75
2022/12/28 07:42:32;;;;;;;0.80;0.80;;;;;;;;;;5048996;28;20277;-78
2022/12/28 07:44:58;;;;;;;0.90;0.90;;;;;;;;;;5050175;28;20688;-73
2022/12/28 07:47:24;;;;;;;0.90;0.90;;;;;;;;;;5042793;28;20195;-74
2022/12/28 07:49:50;;;;;;;1.00;1.00;;;;;;;;;;5054224;28;20179;-75
2022/12/28 07:52:16;;;;;;;1.00;1.00;;;;;;;;;;5053678;28;20187;-75
2022/12/28 07:54:42;;;;;;;0.87;0.87;;;;;;;;;;5054135;28;20198;-75
2022/12/28 07:57:08;;;;;;;0.87;0.87;;;;;;;;;;5053946;28;20217;-75
2022/12/28 07:59:34;;;;;;;1.00;1.00;;;;;;;;;;5053924;28;20187;-75
2022/12/28 08:02:00;;;;;;;1.00;1.00;;;;;;;;;;5053444;28;20240;-74
2022/12/28 08:04:26;;;;;;;0.80;0.80;;;;;;;;;;5054057;28;20206;-74
2022/12/28 08:06:52;;;;;;;0.90;0.90;;;;;;;;;;5054058;28;20633;-75
2022/12/28 08:09:18;;;;;;;0.97;0.97;;;;;;;;;;5053825;28;20178;-74
2022/12/28 08:11:44;;;;;;;0.90;0.90;;;;;;;;;;5053756;28;20178;-75
2022/12/28 08:14:11;;;;;;;0.80;0.80;;;;;;;;;;5053018;28;20675;-74
2022/12/28 08:16:41;;;;;;;0.87;0.87;;;;;;;;;;5053564;28;20362;-75
2022/12/28 08:19:08;;;;;;;0.80;0.80;;;;;;;;;;5053543;28;20561;-73
2022/12/28 08:21:35;;;;;;;0.90;0.90;;;;;;;;;;5053446;28;20288;-75
2022/12/28 08:24:02;;;;;;;0.90;0.90;;;;;;;;;;5054852;28;20210;-75
2022/12/28 08:26:32;;;;;;;0.80;0.80;;;;;;;;;;5051798;28;20171;-75
2022/12/28 08:28:59;;;;;;;0.90;0.90;;;;;;;;;;5053301;28;20178;-75
2022/12/28 08:31:27;;;;;;;0.90;0.90;;;;;;;;;;5053344;28;20214;-74
2022/12/28 08:33:53;;;;;;;0.77;0.77;;;;;;;;;;5052564;28;20218;-75
2022/12/28 08:36:19;;;;;;;0.70;0.70;;;;;;;;;;5052526;28;20234;-75
2022/12/28 08:38:46;;;;;;;0.80;0.80;;;;;;;;;;5053114;28;20210;-75
2022/12/28 08:41:13;;;;;;;0.80;0.80;;;;;;;;;;5052924;28;20240;-75
2022/12/28 08:43:40;;;;;;;0.80;0.80;;;;;;;;;;5052295;28;20651;-75
2022/12/28 08:46:07;;;;;;;0.80;0.80;;;;;;;;;;5053255;28;20186;-75
2022/12/28 08:48:34;;;;;;;0.90;0.90;;;;;;;;;;5053392;28;20221;-75
2022/12/28 08:51:02;;;;;;;0.77;0.77;;;;;;;;;;5053370;28;20175;-74
2022/12/28 08:53:28;;;;;;;0.80;0.80;;;;;;;;;;5052533;28;20206;-74
2022/12/28 08:55:53;;;;;;;0.80;0.80;;;;;;;;;;5053176;28;20197;-74
2022/12/28 08:58:19;;;;;;;0.80;0.80;;;;;;;;;;5053119;28;20219;-74
2022/12/28 09:00:45;;;;;;;0.80;0.80;;;;;;;;;;5053036;28;20175;-75
2022/12/28 09:03:11;;;;;;;0.73;0.73;;;;;;;;;;5052545;28;20269;-74
2022/12/28 09:05:38;;;;;;;0.70;0.70;;;;;;;;;;5053247;28;20274;-75
2022/12/28 09:08:04;;;;;;;0.80;0.80;;;;;;;;;;5053008;28;20337;-75
2022/12/28 09:10:30;;;;;;;0.70;0.70;;;;;;;;;;5052968;28;20186;-75
2022/12/28 09:12:56;;;;;;;0.70;0.70;;;;;;;;;;5052344;28;20182;-75
2022/12/28 09:15:22;;;;;;;0.80;0.80;;;;;;;;;;5053006;28;20179;-74
2022/12/28 09:17:47;;;;;;;0.60;0.60;;;;;;;;;;5052692;28;20265;-74
2022/12/28 09:20:13;;;;;;;0.70;0.70;;;;;;;;;;5052716;28;20178;-74
2022/12/28 09:22:39;;;;;;;0.60;0.60;;;;;;;;;;5051922;28;20266;-74
2022/12/28 09:25:06;;;;;;;0.50;0.50;;;;;;;;;;5052973;28;20175;-74
2022/12/28 09:27:31;;;;;;;0.60;0.60;;;;;;;;;;5052582;28;20580;-74
2022/12/28 09:29:57;;;;;;;0.50;0.50;;;;;;;;;;5052484;28;20275;-74
2022/12/28 09:32:23;;;;;;;0.40;0.40;;;;;;;;;;5052113;28;20182;-74
2022/12/28 09:34:51;;;;;;;0.40;0.40;;;;;;;;;;5052264;28;20812;-74
2022/12/28 09:37:16;;;;;;;0.50;0.50;;;;;;;;;;5052393;28;20221;-75
2022/12/28 09:39:42;;;;;;;0.50;0.50;;;;;;;;;;5052313;28;20583;-75
2022/12/28 09:42:14;;;;;;;0.50;0.50;;;;;;;;;;5051784;28;20682;-75
2022/12/28 09:44:56;;;;;;;0.40;0.40;;;;;;;;;;5037158;28;20222;-74
2022/12/28 09:47:40;;;;;;;0.43;0.43;;;;;;;;;;5048814;28;20183;-74
2022/12/28 09:50:17;;;;;;;0.50;0.50;;;;;;;;;;5036234;28;20184;-74
2022/12/28 09:53:06;;;;;;;0.43;0.43;;;;;;;;;;5035318;28;20170;-74
2022/12/28 09:55:37;;;;;;;0.50;0.50;;;;;;;;;;5034807;28;20187;-74
2022/12/28 09:58:04;;;;;;;0.30;0.30;;;;;;;;;;5046341;28;20199;-74
2022/12/28 10:00:38;;;;;;;0.43;0.43;;;;;;;;;;5034994;28;20317;-73
2022/12/28 10:03:10;;;;;;;0.40;0.40;;;;;;;;;;5044106;28;20245;-75
2022/12/28 10:05:36;;;;;;;0.50;0.50;;;;;;;;;;5033810;28;20676;-74
2022/12/28 10:08:02;;;;;;;0.40;0.40;;;;;;;;;;5046209;28;20182;-73
2022/12/28 10:10:29;;;;;;;0.40;0.40;;;;;;;;;;5034519;28;20175;-75
2022/12/28 10:12:55;;;;;;;0.40;0.40;;;;;;;;;;5044799;28;20176;-74
2022/12/28 10:15:24;;;;;;;0.40;0.40;;;;;;;;;;5040558;28;20222;-74
2022/12/28 10:17:50;;;;;;;0.50;0.50;;;;;;;;;;5037983;28;20310;-75
2022/12/28 10:20:17;;;;;;;0.40;0.40;;;;;;;;;;5047668;28;20213;-76
2022/12/28 10:22:44;;;;;;;0.40;0.40;;;;;;;;;;5037497;28;20189;-75
2022/12/28 10:25:20;;;;;;;0.40;0.40;;;;;;;;;;5042774;28;20190;-76
2022/12/28 10:27:46;;;;;;;0.40;0.40;;;;;;;;;;5044173;28;20183;-75
2022/12/28 10:30:17;;;;;;;0.40;0.40;;;;;;;;;;5035744;28;20172;-75
2022/12/28 10:32:49;;;;;;;0.50;0.50;;;;;;;;;;5036377;28;20171;-76
2022/12/28 10:35:22;;;;;;;0.50;0.50;;;;;;;;;;5043269;28;20171;-76
2022/12/28 10:37:48;;;;;;;0.50;0.50;;;;;;;;;;5046009;28;20541;-76
2022/12/28 10:40:23;;;;;;;0.40;0.40;;;;;;;;;;5036530;28;20207;-76
2022/12/28 10:42:51;;;;;;;0.50;0.50;;;;;;;;;;5047188;28;20186;-75
2022/12/28 10:45:18;;;;;;;0.47;0.47;;;;;;;;;;5041945;28;20175;-76
2022/12/28 10:47:52;;;;;;;0.60;0.60;;;;;;;;;;5039434;28;20202;-74
2022/12/28 10:50:38;;;;;;;0.50;0.50;;;;;;;;;;5048617;28;20175;-78
2022/12/28 10:53:04;;;;;;;0.50;0.50;;;;;;;;;;5039071;28;20273;-76
2022/12/28 10:55:32;;;;;;;0.50;0.50;;;;;;;;;;5050270;28;20201;-75
2022/12/28 10:58:18;;;;;;;0.50;0.50;;;;;;;;;;5047254;28;20748;-75
2022/12/28 11:00:52;;;;;;;0.50;0.50;;;;;;;;;;5049870;28;20183;-75
2022/12/28 11:03:19;;;;;;;0.50;0.50;;;;;;;;;;5047915;28;20220;-74
2022/12/28 11:05:45;;;;;;;0.40;0.40;;;;;;;;;;5049558;28;20178;-74
2022/12/28 11:08:13;;;;;;;0.60;0.60;;;;;;;;;;5041762;28;20205;-74
2022/12/28 11:10:39;;;;;;;0.67;0.67;;;;;;;;;;5040866;28;20235;-74
2022/12/28 11:13:10;;;;;;;0.63;0.63;;;;;;;;;;5050128;28;20204;-77
2022/12/28 11:15:36;;;;;;;0.70;0.70;;;;;;;;;;5048265;28;20218;-75
2022/12/28 11:18:13;;;;;;;0.60;0.60;;;;;;;;;;5053331;28;20211;-74
2022/12/28 11:20:41;;;;;;;0.50;0.50;;;;;;;;;;5051628;28;20183;-74
2022/12/28 11:23:08;;;;;;;0.60;0.60;;;;;;;;;;5052895;28;20249;-74
2022/12/28 11:25:35;;;;;;;0.50;0.50;;;;;;;;;;5053208;28;20312;-74
2022/12/28 11:28:04;;;;;;;0.60;0.60;;;;;;;;;;5056290;28;20197;-74
2022/12/28 11:30:30;;;;;;;0.50;0.50;;;;;;;;;;5041307;28;20179;-75
2022/12/28 11:33:00;;;;;;;0.70;0.70;;;;;;;;;;5052866;28;20747;-75
2022/12/28 11:35:31;;;;;;;0.63;0.63;;;;;;;;;;5051776;28;20183;-76
2022/12/28 11:38:06;;;;;;;0.53;0.53;;;;;;;;;;5051195;28;20298;-75
2022/12/28 11:40:51;;;;;;;0.50;0.50;;;;;;;;;;5055642;28;20186;-76
2022/12/28 11:43:29;;;;;;;0.60;0.60;;;;;;;;;;5054330;28;20298;-76
2022/12/28 11:45:59;;;;;;;0.60;0.60;;;;;;;;;;5056536;28;20585;-74
2022/12/28 11:48:43;;;;;;;0.60;0.60;;;;;;;;;;5056550;28;20163;-75
2022/12/28 11:51:15;;;;;;;0.60;0.60;;;;;;;;;;5056210;28;20634;-76
2022/12/28 11:53:44;;;;;;;0.70;0.70;;;;;;;;;;5055684;28;20749;-75
2022/12/28 11:56:11;;;;;;;0.70;0.70;;;;;;;;;;5056538;28;20183;-75
2022/12/28 11:58:40;;;;;;;0.70;0.70;;;;;;;;;;5056573;28;20682;-76
2022/12/28 12:01:31;;;;;;;0.60;0.60;;;;;;;;;;5056345;28;20167;-76
2022/12/28 12:03:57;;;;;;;0.60;0.60;;;;;;;;;;5048898;28;20221;-74
2022/12/28 12:06:41;;;;;;;0.60;0.60;;;;;;;;;;5045517;28;20222;-73
2022/12/28 12:09:22;;;;;;;0.70;0.70;;;;;;;;;;5047971;28;20274;-73
2022/12/28 12:11:50;;;;;;;0.60;0.60;;;;;;;;;;5046085;28;20183;-73
2022/12/28 12:14:17;;;;;;;0.70;0.70;;;;;;;;;;5049182;28;20195;-74
2022/12/28 12:16:49;;;;;;;0.60;0.60;;;;;;;;;;5052148;28;20207;-74
2022/12/28 12:19:23;;;;;;;0.60;0.60;;;;;;;;;;5048525;28;20167;-75
2022/12/28 12:21:58;;;;;;;0.70;0.70;;;;;;;;;;5049191;28;20943;-74
2022/12/28 12:24:43;;;;;;;0.70;0.70;;;;;;;;;;5047182;28;20221;-75
2022/12/28 12:27:14;;;;;;;0.60;0.60;;;;;;;;;;5046442;28;20180;-74
2022/12/28 12:29:41;;;;;;;0.60;0.60;;;;;;;;;;5048751;28;20557;-75
2022/12/28 12:32:20;;;;;;;0.60;0.60;;;;;;;;;;5052361;28;20270;-75
2022/12/28 12:34:54;;;;;;;0.60;0.60;;;;;;;;;;5053453;28;20581;-75
2022/12/28 12:37:28;;;;;;;0.60;0.60;;;;;;;;;;5053147;28;20582;-76
2022/12/28 12:40:03;;;;;;;0.57;0.57;;;;;;;;;;5042573;28;20202;-74
2022/12/28 12:42:47;;;;;;;0.53;0.53;;;;;;;;;;5044498;28;20221;-75
2022/12/28 12:45:21;;;;;;;0.60;0.60;;;;;;;;;;5046417;28;20257;-73
2022/12/28 12:47:55;;;;;;;0.70;0.70;;;;;;;;;;5036118;28;20186;-74
2022/12/28 12:50:24;;;;;;;0.60;0.60;;;;;;;;;;5046257;28;20545;-74
2022/12/28 12:52:59;;;;;;;0.60;0.60;;;;;;;;;;5042342;28;20190;-74
2022/12/28 12:55:37;;;;;;;0.60;0.60;;;;;;;;;;5036920;28;20580;-74
2022/12/28 12:58:16;;;;;;;0.63;0.63;;;;;;;;;;5036566;28;20363;-75
2022/12/28 13:00:48;;;;;;;0.60;0.60;;;;;;;;;;5042677;28;20178;-74
2022/12/28 13:03:14;;;;;;;0.70;0.70;;;;;;;;;;5045713;28;20344;-74
2022/12/28 13:05:42;;;;;;;0.60;0.60;;;;;;;;;;5035395;28;20661;-72
2022/12/28 13:08:15;;;;;;;0.70;0.70;;;;;;;;;;5047530;28;20180;-73
2022/12/28 13:10:44;;;;;;;0.60;0.60;;;;;;;;;;5051504;28;20172;-73
2022/12/28 13:13:17;;;;;;;0.60;0.60;;;;;;;;;;5038187;28;20198;-74
2022/12/28 13:15:43;;;;;;;0.60;0.60;;;;;;;;;;5048553;28;20171;-73
2022/12/28 13:18:27;;;;;;;0.60;0.60;;;;;;;;;;5036101;28;20215;-74
2022/12/28 13:20:57;;;;;;;0.63;0.63;;;;;;;;;;5043216;28;21280;-74
2022/12/28 13:23:24;;;;;;;0.60;0.60;;;;;;;;;;5035041;28;20192;-74
2022/12/28 13:25:54;;;;;;;0.60;0.60;;;;;;;;;;5048291;28;20175;-74
2022/12/28 13:28:22;;;;;;;0.80;0.80;;;;;;;;;;5040262;28;20175;-73
2022/12/28 13:30:57;;;;;;;0.70;0.70;;;;;;;;;;5043511;28;20214;-74
2022/12/28 13:33:23;;;;;;;0.67;0.67;;;;;;;;;;5047765;28;20194;-74
2022/12/28 13:35:48;;;;;;;0.80;0.80;;;;;;;;;;5035652;28;20647;-74
2022/12/28 13:38:17;;;;;;;0.70;0.70;;;;;;;;;;5046842;28;20259;-73
2022/12/28 13:40:51;;;;;;;0.70;0.70;;;;;;;;;;5041743;28;20372;-73
2022/12/28 13:43:35;;;;;;;0.70;0.70;;;;;;;;;;5037248;28;20204;-73
2022/12/28 13:46:06;;;;;;;0.70;0.70;;;;;;;;;;5035990;28;20620;-74
2022/12/28 13:48:33;;;;;;;0.70;0.70;;;;;;;;;;5043670;28;20590;-73
2022/12/28 13:50:59;;;;;;;0.67;0.67;;;;;;;;;;5043388;28;20187;-74
2022/12/28 13:53:26;;;;;;;0.70;0.70;;;;;;;;;;5035448;28;20261;-74
2022/12/28 13:55:55;;;;;;;0.70;0.70;;;;;;;;;;5047724;28;20187;-74
2022/12/28 13:58:28;;;;;;;0.70;0.70;;;;;;;;;;5038106;28;20213;-74
2022/12/28 14:00:55;;;;;;;0.70;0.70;;;;;;;;;;5040186;28;20553;-74
2022/12/28 14:03:21;;;;;;;0.70;0.70;;;;;;;;;;5045846;28;20566;-73
2022/12/28 14:05:49;;;;;;;0.60;0.60;;;;;;;;;;5034850;28;20179;-74
2022/12/28 14:08:15;;;;;;;0.80;0.80;;;;;;;;;;5045435;28;20178;-74
2022/12/28 14:10:41;;;;;;;0.87;0.87;;;;;;;;;;5040390;28;20186;-74
2022/12/28 14:13:08;;;;;;;0.70;0.70;;;;;;;;;;5037802;28;20231;-74
2022/12/28 14:15:34;;;;;;;0.70;0.70;;;;;;;;;;5047826;28;20253;-72
2022/12/28 14:18:01;;;;;;;0.70;0.70;;;;;;;;;;5034662;28;20253;-73
2022/12/28 14:20:27;;;;;;;0.70;0.70;;;;;;;;;;5043508;28;20172;-73
2022/12/28 14:22:53;;;;;;;0.60;0.60;;;;;;;;;;5039471;28;20217;-73
2022/12/28 14:25:21;;;;;;;0.60;0.60;;;;;;;;;;5050268;22;20216;-78
2022/12/28 14:27:56;;;;;;;0.70;0.70;;;;;;;;;;5019621;28;20191;-77
2022/12/28 14:30:30;;;;;;;0.63;0.63;;;;;;;;;;5046744;28;20167;-78
2022/12/28 14:32:57;;;;;;;0.60;0.60;;;;;;;;;;5023309;28;20237;-77
2022/12/28 14:35:25;;;;;;;0.60;0.60;;;;;;;;;;5012169;28;20233;-78
2022/12/28 14:37:58;;;;;;;0.70;0.70;;;;;;;;;;5014739;28;20223;-78
2022/12/28 14:40:26;;;;;;;0.80;0.80;;;;;;;;;;5016379;28;20187;-76
2022/12/28 14:42:53;;;;;;;0.77;0.77;;;;;;;;;;5013882;28;20276;-77
2022/12/28 14:45:35;;;;;;;0.70;0.70;;;;;;;;;;5025814;28;20176;-77
2022/12/28 14:48:01;;;;;;;0.77;0.77;;;;;;;;;;5001654;28;20985;-77
2022/12/28 14:50:29;;;;;;;0.70;0.70;;;;;;;;;;5018022;28;20191;-76
2022/12/28 14:53:21;;;;;;;0.70;0.70;;;;;;;;;;5014692;28;20708;-77
2022/12/28 14:55:59;;;;;;;0.60;0.60;;;;;;;;;;5013528;28;20191;-77
2022/12/28 14:58:27;;;;;;;0.70;0.70;;;;;;;;;;5020849;28;20227;-78
2022/12/28 15:00:56;;;;;;;0.70;0.70;;;;;;;;;;5011631;28;20171;-76
2022/12/28 15:03:22;;;;;;;0.70;0.70;;;;;;;;;;4992093;28;20486;-76
2022/12/28 15:05:48;;;;;;;0.60;0.60;;;;;;;;;;5001196;28;20184;-77
2022/12/28 15:08:14;;;;;;;0.80;0.80;;;;;;;;;;4996373;28;20181;-75
2022/12/28 15:10:48;;;;;;;0.70;0.70;;;;;;;;;;5013484;28;20179;-77
2022/12/28 15:13:14;;;;;;;0.73;0.73;;;;;;;;;;5010204;28;21546;-77
2022/12/28 15:15:40;;;;;;;0.70;0.70;;;;;;;;;;4995102;28;20199;-76
2022/12/28 15:18:06;;;;;;;0.60;0.60;;;;;;;;;;4991785;28;20769;-77
2022/12/28 15:20:32;;;;;;;0.70;0.70;;;;;;;;;;4993142;28;20320;-77
2022/12/28 15:22:58;;;;;;;0.70;0.70;;;;;;;;;;5014982;28;20618;-76